createdAt,value
2018-02-19T00:00:24.544Z,23.49
2018-02-19T00:01:24.782Z,23.39
2018-02-19T00:02:25.017Z,23.39
2018-02-19T00:03:25.254Z,23.49
2018-02-19T00:04:25.493Z,23.39
2018-02-19T00:05:25.731Z,23.49
2018-02-19T00:06:25.965Z,23.49
2018-02-19T00:07:26.201Z,23.39
2018-02-19T00:08:26.442Z,23.39
2018-02-19T00:09:26.678Z,23.39
2018-02-19T00:10:26.984Z,23.50
2018-02-19T00:11:27.219Z,23.39
2018-02-19T00:12:27.458Z,23.49
2018-02-19T00:13:27.696Z,23.39
2018-02-19T00:14:27.934Z,23.39
2018-02-19T00:15:28.166Z,23.39
2018-02-19T00:16:28.407Z,23.49
2018-02-19T00:17:28.645Z,23.39
2018-02-19T00:18:28.882Z,23.39
2018-02-19T00:19:29.115Z,23.39
2018-02-19T00:20:29.354Z,23.00
2018-02-19T00:21:29.591Z,23.39
2018-02-19T00:22:29.828Z,23.49
2018-02-19T00:23:30.063Z,23.49
2018-02-19T00:24:30.302Z,23.49
2018-02-19T00:25:30.552Z,23.39
2018-02-19T00:26:30.781Z,23.39
2018-02-19T00:27:31.013Z,23.39
2018-02-19T00:28:31.252Z,23.39
2018-02-19T00:29:31.489Z,23.00
2018-02-19T00:30:31.727Z,23.39
2018-02-19T00:31:31.962Z,23.00
2018-02-19T00:32:32.202Z,23.39
2018-02-19T00:33:32.440Z,23.30
2018-02-19T00:34:32.676Z,23.10
2018-02-19T00:35:32.911Z,23.10
2018-02-19T00:36:33.150Z,23.20
2018-02-19T00:37:33.387Z,23.10
2018-02-19T00:38:33.625Z,23.49
2018-02-19T00:39:33.860Z,23.00
2018-02-19T00:40:34.101Z,23.00
2018-02-19T00:41:34.336Z,23.00
2018-02-19T00:42:34.572Z,23.30
2018-02-19T00:43:34.809Z,23.00
2018-02-19T00:44:35.046Z,23.39
2018-02-19T00:45:35.284Z,23.10
2018-02-19T00:46:35.526Z,23.00
2018-02-19T00:47:35.757Z,23.00
2018-02-19T00:48:35.997Z,23.00
2018-02-19T00:49:36.233Z,23.00
2018-02-19T00:50:36.470Z,23.00
2018-02-19T00:51:36.707Z,23.00
2018-02-19T00:52:36.945Z,23.00
2018-02-19T00:53:37.182Z,23.00
2018-02-19T00:54:37.419Z,23.10
2018-02-19T00:55:37.656Z,23.10
2018-02-19T00:56:37.895Z,23.20
2018-02-19T00:57:38.133Z,23.00
2018-02-19T00:58:38.370Z,23.39
2018-02-19T00:59:38.605Z,23.39
2018-02-19T01:00:38.846Z,23.39
2018-02-19T01:01:39.090Z,23.39
2018-02-19T01:02:39.330Z,23.30
2018-02-19T01:03:39.563Z,23.30
2018-02-19T01:04:39.801Z,23.30
2018-02-19T01:05:40.042Z,23.30
2018-02-19T01:06:40.279Z,23.39
2018-02-19T01:07:40.516Z,23.30
2018-02-19T01:08:40.755Z,23.39
2018-02-19T01:09:40.992Z,23.30
2018-02-19T01:10:41.240Z,23.30
2018-02-19T01:11:41.465Z,23.30
2018-02-19T01:12:41.702Z,23.20
2018-02-19T01:13:41.940Z,23.20
2018-02-19T01:14:42.178Z,23.20
2018-02-19T01:15:42.413Z,23.00
2018-02-19T01:16:42.651Z,23.30
2018-02-19T01:17:42.888Z,23.30
2018-02-19T01:18:43.125Z,23.30
2018-02-19T01:19:43.361Z,23.20
2018-02-19T01:20:43.598Z,23.20
2018-02-19T01:21:43.839Z,23.30
2018-02-19T01:22:44.075Z,23.10
2018-02-19T01:23:44.310Z,23.20
2018-02-19T01:24:44.548Z,23.30
2018-02-19T01:25:44.786Z,23.30
2018-02-19T01:26:45.024Z,23.10
2018-02-19T01:27:45.259Z,23.20
2018-02-19T01:28:45.496Z,23.30
2018-02-19T01:29:45.736Z,23.20
2018-02-19T01:30:45.982Z,23.30
2018-02-19T01:31:46.209Z,23.20
2018-02-19T01:32:46.451Z,23.20
2018-02-19T01:33:46.684Z,23.30
2018-02-19T01:34:46.923Z,23.30
2018-02-19T01:35:47.157Z,23.20
2018-02-19T01:36:47.394Z,23.20
2018-02-19T01:37:47.634Z,23.20
2018-02-19T01:38:47.870Z,23.20
2018-02-19T01:39:48.107Z,23.20
2018-02-19T01:40:48.342Z,23.30
2018-02-19T01:41:48.581Z,23.31
2018-02-19T01:42:48.821Z,23.10
2018-02-19T01:43:49.057Z,23.21
2018-02-19T01:44:49.294Z,23.20
2018-02-19T01:45:49.531Z,23.20
2018-02-19T01:46:49.769Z,23.21
2018-02-19T01:47:50.005Z,23.30
2018-02-19T01:48:50.241Z,23.30
2018-02-19T01:49:50.480Z,23.20
2018-02-19T01:50:50.718Z,23.20
2018-02-19T01:51:50.953Z,23.20
2018-02-19T01:52:51.191Z,23.21
2018-02-19T01:53:51.429Z,23.10
2018-02-19T01:54:51.667Z,23.20
2018-02-19T01:55:51.902Z,23.20
2018-02-19T01:56:59.275Z,23.20
2018-02-19T01:57:59.532Z,23.10
2018-02-19T01:58:59.792Z,23.10
2018-02-19T02:00:00.038Z,23.20
2018-02-19T02:01:00.292Z,23.10
2018-02-19T02:02:01.557Z,23.20
2018-02-19T02:03:00.880Z,23.20
2018-02-19T02:04:01.130Z,23.10
2018-02-19T02:04:54.254Z,23.20
2018-02-19T02:05:54.492Z,23.20
2018-02-19T02:06:54.727Z,23.10
2018-02-19T02:07:54.966Z,23.30
2018-02-19T02:08:55.202Z,23.30
2018-02-19T02:09:55.439Z,23.30
2018-02-19T02:10:55.676Z,23.30
2018-02-19T02:11:55.916Z,23.20
2018-02-19T02:12:56.152Z,23.10
2018-02-19T02:13:56.390Z,23.20
2018-02-19T02:14:56.625Z,23.30
2018-02-19T02:15:56.859Z,23.20
2018-02-19T02:16:57.097Z,23.31
2018-02-19T02:17:57.334Z,23.30
2018-02-19T02:18:57.573Z,23.30
2018-02-19T02:19:57.806Z,23.30
2018-02-19T02:20:58.043Z,23.20
2018-02-19T02:21:58.282Z,23.30
2018-02-19T02:22:58.522Z,23.30
2018-02-19T02:23:58.753Z,23.39
2018-02-19T02:24:58.991Z,23.30
2018-02-19T02:25:59.227Z,23.30
2018-02-19T02:26:59.471Z,23.30
2018-02-19T02:27:59.699Z,23.20
2018-02-19T02:28:59.937Z,23.30
2018-02-19T02:30:00.174Z,23.30
2018-02-19T02:31:00.414Z,23.20
2018-02-19T02:32:00.681Z,23.20
2018-02-19T02:33:00.884Z,23.20
2018-02-19T02:34:01.125Z,23.30
2018-02-19T02:35:01.363Z,23.31
2018-02-19T02:36:01.598Z,23.30
2018-02-19T02:37:01.836Z,23.30
2018-02-19T02:38:02.072Z,23.20
2018-02-19T02:39:02.310Z,23.20
2018-02-19T02:40:02.546Z,23.20
2018-02-19T02:41:02.783Z,23.20
2018-02-19T02:42:03.022Z,23.20
2018-02-19T02:43:03.258Z,23.20
2018-02-19T02:44:03.492Z,23.20
2018-02-19T02:45:03.731Z,23.10
2018-02-19T02:46:03.970Z,23.20
2018-02-19T02:47:04.207Z,23.10
2018-02-19T02:48:04.443Z,23.20
2018-02-19T02:49:04.675Z,23.20
2018-02-19T02:50:04.920Z,23.20
2018-02-19T02:51:05.157Z,23.30
2018-02-19T02:52:05.390Z,23.10
2018-02-19T02:53:05.625Z,23.30
2018-02-19T02:54:05.868Z,23.30
2018-02-19T02:55:06.105Z,23.20
2018-02-19T02:56:06.340Z,23.30
2018-02-19T02:57:06.578Z,23.30
2018-02-19T02:58:06.817Z,23.10
2018-02-19T02:59:07.054Z,23.20
2018-02-19T03:00:07.288Z,23.20
2018-02-19T03:01:07.529Z,23.39
2018-02-19T03:02:07.765Z,23.49
2018-02-19T03:03:08.004Z,23.30
2018-02-19T03:04:08.239Z,23.30
2018-02-19T03:05:08.477Z,23.30
2018-02-19T03:06:08.718Z,23.39
2018-02-19T03:07:08.958Z,23.30
2018-02-19T03:08:09.190Z,23.30
2018-02-19T03:09:09.427Z,23.30
2018-02-19T03:10:09.667Z,23.30
2018-02-19T03:11:09.904Z,23.31
2018-02-19T03:12:10.139Z,23.31
2018-02-19T03:13:10.377Z,23.39
2018-02-19T03:14:10.614Z,23.49
2018-02-19T03:15:10.855Z,23.31
2018-02-19T03:16:11.089Z,23.30
2018-02-19T03:17:11.325Z,23.39
2018-02-19T03:18:11.563Z,23.39
2018-02-19T03:19:11.807Z,23.30
2018-02-19T03:20:12.037Z,23.20
2018-02-19T03:21:12.273Z,23.31
2018-02-19T03:22:12.510Z,23.39
2018-02-19T03:23:12.748Z,23.20
2018-02-19T03:24:12.983Z,23.39
2018-02-19T03:25:13.220Z,23.30
2018-02-19T03:26:13.460Z,23.20
2018-02-19T03:27:13.698Z,23.39
2018-02-19T03:28:13.933Z,23.39
2018-02-19T03:29:14.170Z,23.39
2018-02-19T03:30:14.422Z,23.20
2018-02-19T03:31:14.655Z,23.39
2018-02-19T03:32:14.884Z,23.39
2018-02-19T03:33:15.125Z,23.39
2018-02-19T03:34:15.360Z,23.31
2018-02-19T03:35:15.603Z,23.39
2018-02-19T03:36:15.832Z,23.39
2018-02-19T03:37:16.072Z,23.20
2018-02-19T03:38:16.307Z,23.39
2018-02-19T03:39:16.547Z,23.49
2018-02-19T03:40:16.778Z,23.49
2018-02-19T03:41:17.016Z,23.39
2018-02-19T03:42:17.257Z,23.49
2018-02-19T03:43:17.493Z,23.49
2018-02-19T03:44:17.729Z,23.39
2018-02-19T03:45:17.964Z,23.39
2018-02-19T03:46:18.221Z,23.49
2018-02-19T03:47:18.454Z,23.20
2018-02-19T03:48:18.696Z,23.30
2018-02-19T03:49:18.944Z,23.30
2018-02-19T03:50:19.178Z,23.39
2018-02-19T03:51:19.420Z,23.39
2018-02-19T03:52:19.658Z,23.20
2018-02-19T03:53:19.894Z,23.49
2018-02-19T03:54:20.144Z,23.49
2018-02-19T03:55:20.365Z,23.49
2018-02-19T03:56:20.598Z,23.49
2018-02-19T03:57:20.839Z,23.49
2018-02-19T03:58:21.083Z,23.49
2018-02-19T03:59:21.312Z,23.49
2018-02-19T04:00:21.548Z,23.49
2018-02-19T04:01:21.789Z,23.39
2018-02-19T04:02:22.026Z,23.39
2018-02-19T04:03:22.260Z,23.39
2018-02-19T04:04:22.498Z,23.39
2018-02-19T04:05:22.737Z,23.49
2018-02-19T04:06:22.975Z,23.39
2018-02-19T04:07:23.210Z,23.39
2018-02-19T04:08:23.449Z,23.49
2018-02-19T04:09:23.685Z,23.49
2018-02-19T04:10:23.923Z,23.20
2018-02-19T04:11:24.161Z,23.39
2018-02-19T04:12:24.399Z,23.49
2018-02-19T04:13:24.637Z,23.20
2018-02-19T04:14:24.875Z,23.39
2018-02-19T04:15:25.109Z,23.49
2018-02-19T04:16:25.346Z,23.39
2018-02-19T04:17:25.585Z,23.30
2018-02-19T04:18:25.822Z,23.20
2018-02-19T04:19:26.056Z,23.39
2018-02-19T04:20:26.294Z,23.39
2018-02-19T04:21:26.533Z,23.39
2018-02-19T04:22:26.771Z,23.49
2018-02-19T04:23:27.008Z,23.78
2018-02-19T04:24:27.243Z,23.39
2018-02-19T04:25:27.482Z,23.39
2018-02-19T04:26:27.720Z,23.20
2018-02-19T04:27:27.957Z,23.39
2018-02-19T04:28:28.194Z,23.49
2018-02-19T04:29:28.431Z,23.20
2018-02-19T04:30:28.669Z,23.58
2018-02-19T04:31:28.904Z,23.49
2018-02-19T04:32:29.141Z,23.78
2018-02-19T04:33:29.381Z,23.49
2018-02-19T04:34:29.618Z,23.49
2018-02-19T04:35:29.852Z,23.30
2018-02-19T04:36:30.090Z,23.30
2018-02-19T04:37:30.329Z,23.58
2018-02-19T04:38:30.566Z,23.49
2018-02-19T04:39:30.802Z,23.49
2018-02-19T04:40:31.039Z,23.58
2018-02-19T04:41:31.278Z,23.39
2018-02-19T04:42:31.515Z,23.68
2018-02-19T04:43:31.750Z,23.30
2018-02-19T04:44:31.987Z,23.30
2018-02-19T04:45:32.227Z,23.68
2018-02-19T04:46:32.466Z,23.30
2018-02-19T04:47:32.700Z,23.58
2018-02-19T04:48:32.937Z,23.39
2018-02-19T04:49:33.176Z,23.49
2018-02-19T04:50:41.057Z,23.58
2018-02-19T04:51:40.857Z,23.39
2018-02-19T04:52:41.116Z,23.10
2018-02-19T04:53:41.364Z,23.39
2018-02-19T04:54:41.628Z,23.49
2018-02-19T04:55:41.878Z,23.39
2018-02-19T04:56:42.647Z,23.49
2018-02-19T04:57:42.440Z,23.00
2018-02-19T04:58:35.561Z,23.49
2018-02-19T04:59:35.805Z,23.39
2018-02-19T05:00:36.047Z,23.39
2018-02-19T05:01:36.276Z,23.49
2018-02-19T05:02:36.513Z,23.30
2018-02-19T05:03:36.755Z,23.49
2018-02-19T05:04:36.992Z,23.30
2018-02-19T05:05:37.224Z,23.49
2018-02-19T05:06:37.462Z,23.40
2018-02-19T05:07:37.706Z,23.39
2018-02-19T05:08:37.940Z,23.39
2018-02-19T05:09:38.176Z,23.39
2018-02-19T05:10:38.417Z,23.39
2018-02-19T05:11:38.650Z,23.49
2018-02-19T05:12:38.888Z,23.39
2018-02-19T05:13:39.126Z,23.00
2018-02-19T05:14:39.364Z,23.49
2018-02-19T05:15:39.601Z,23.39
2018-02-19T05:16:39.838Z,23.49
2018-02-19T05:17:40.073Z,23.49
2018-02-19T05:18:40.313Z,23.39
2018-02-19T05:19:40.549Z,23.39
2018-02-19T05:20:40.786Z,23.49
2018-02-19T05:21:41.021Z,23.20
2018-02-19T05:22:41.260Z,23.20
2018-02-19T05:23:41.502Z,23.39
2018-02-19T05:24:41.738Z,23.49
2018-02-19T05:25:41.971Z,23.20
2018-02-19T05:26:42.208Z,23.39
2018-02-19T05:27:42.447Z,23.39
2018-02-19T05:28:42.685Z,23.10
2018-02-19T05:29:42.919Z,22.91
2018-02-19T05:30:43.153Z,23.10
2018-02-19T05:31:43.397Z,23.39
2018-02-19T05:32:43.633Z,23.49
2018-02-19T05:33:43.869Z,22.91
2018-02-19T05:34:44.106Z,23.10
2018-02-19T05:35:44.345Z,23.50
2018-02-19T05:36:44.583Z,23.49
2018-02-19T05:37:44.817Z,23.49
2018-02-19T05:38:45.055Z,23.39
2018-02-19T05:39:45.295Z,23.20
2018-02-19T05:40:45.532Z,23.39
2018-02-19T05:41:45.765Z,23.39
2018-02-19T05:42:46.003Z,23.20
2018-02-19T05:43:46.245Z,23.49
2018-02-19T05:44:46.481Z,23.10
2018-02-19T05:45:46.715Z,22.91
2018-02-19T05:46:46.952Z,23.49
2018-02-19T05:47:47.192Z,23.39
2018-02-19T05:48:47.430Z,23.39
2018-02-19T05:49:47.665Z,23.10
2018-02-19T05:50:47.903Z,23.49
2018-02-19T05:51:48.142Z,23.39
2018-02-19T05:52:48.383Z,23.20
2018-02-19T05:53:48.614Z,23.20
2018-02-19T05:54:48.852Z,23.30
2018-02-19T05:55:49.090Z,22.91
2018-02-19T05:56:49.327Z,22.91
2018-02-19T05:57:49.560Z,23.39
2018-02-19T05:58:49.798Z,23.10
2018-02-19T05:59:50.039Z,23.39
2018-02-19T06:00:50.277Z,23.30
2018-02-19T06:01:50.512Z,23.39
2018-02-19T06:02:50.749Z,23.20
2018-02-19T06:03:50.988Z,23.00
2018-02-19T06:04:51.233Z,23.10
2018-02-19T06:05:51.460Z,23.20
2018-02-19T06:06:51.697Z,22.91
2018-02-19T06:07:51.982Z,23.39
2018-02-19T06:08:52.174Z,23.00
2018-02-19T06:09:52.412Z,22.91
2018-02-19T06:10:52.651Z,23.10
2018-02-19T06:11:52.886Z,23.00
2018-02-19T06:12:53.126Z,23.10
2018-02-19T06:13:53.357Z,23.30
2018-02-19T06:14:53.596Z,23.10
2018-02-19T06:15:53.835Z,22.81
2018-02-19T06:16:54.071Z,23.10
2018-02-19T06:17:54.306Z,23.00
2018-02-19T06:18:54.544Z,22.91
2018-02-19T06:19:54.783Z,23.00
2018-02-19T06:20:55.021Z,23.20
2018-02-19T06:21:55.256Z,23.10
2018-02-19T06:22:55.492Z,23.00
2018-02-19T06:23:55.734Z,23.10
2018-02-19T06:24:55.971Z,23.10
2018-02-19T06:25:56.206Z,22.81
2018-02-19T06:26:56.444Z,23.20
2018-02-19T06:27:56.681Z,23.10
2018-02-19T06:28:56.921Z,23.10
2018-02-19T06:29:57.156Z,23.20
2018-02-19T06:30:57.394Z,23.10
2018-02-19T06:31:57.628Z,23.20
2018-02-19T06:32:57.868Z,23.20
2018-02-19T06:33:58.104Z,23.10
2018-02-19T06:34:58.340Z,23.20
2018-02-19T06:35:58.580Z,23.30
2018-02-19T06:36:58.817Z,23.20
2018-02-19T06:37:59.055Z,23.00
2018-02-19T06:38:59.290Z,23.20
2018-02-19T06:39:59.529Z,22.72
2018-02-19T06:40:59.766Z,23.10
2018-02-19T06:42:00.000Z,23.20
2018-02-19T06:43:00.238Z,23.20
2018-02-19T06:44:00.482Z,23.02
2018-02-19T06:45:00.715Z,23.20
2018-02-19T06:46:00.951Z,23.20
2018-02-19T06:47:01.188Z,23.21
2018-02-19T06:48:01.426Z,23.00
2018-02-19T06:49:01.664Z,23.10
2018-02-19T06:50:01.899Z,23.00
2018-02-19T06:51:02.137Z,23.00
2018-02-19T06:52:02.376Z,23.10
2018-02-19T06:53:02.613Z,23.20
2018-02-19T06:54:02.854Z,23.20
2018-02-19T06:55:03.085Z,23.20
2018-02-19T06:56:03.325Z,23.00
2018-02-19T06:57:03.561Z,23.00
2018-02-19T06:58:03.798Z,23.00
2018-02-19T06:59:04.037Z,23.10
2018-02-19T07:00:04.273Z,23.00
2018-02-19T07:01:04.510Z,23.20
2018-02-19T07:02:04.745Z,23.10
2018-02-19T07:03:04.983Z,23.00
2018-02-19T07:04:05.222Z,23.00
2018-02-19T07:05:05.459Z,22.91
2018-02-19T07:06:05.694Z,22.91
2018-02-19T07:07:05.931Z,23.00
2018-02-19T07:08:06.270Z,23.00
2018-02-19T07:09:06.417Z,23.00
2018-02-19T07:10:06.648Z,22.91
2018-02-19T07:11:06.884Z,22.92
2018-02-19T07:12:07.121Z,23.00
2018-02-19T07:13:07.366Z,22.91
2018-02-19T07:14:07.597Z,23.00
2018-02-19T07:15:07.846Z,22.91
2018-02-19T07:16:08.069Z,23.00
2018-02-19T07:17:08.310Z,23.00
2018-02-19T07:18:08.542Z,23.02
2018-02-19T07:19:08.779Z,23.11
2018-02-19T07:20:09.016Z,23.02
2018-02-19T07:21:09.254Z,23.02
2018-02-19T07:22:09.491Z,23.00
2018-02-19T07:23:09.729Z,22.91
2018-02-19T07:24:09.966Z,22.91
2018-02-19T07:25:10.203Z,23.00
2018-02-19T07:26:10.441Z,23.02
2018-02-19T07:27:10.679Z,22.91
2018-02-19T07:28:10.917Z,23.00
2018-02-19T07:29:11.153Z,23.00
2018-02-19T07:30:11.389Z,22.92
2018-02-19T07:31:11.625Z,23.00
2018-02-19T07:32:11.865Z,23.49
2018-02-19T07:33:12.104Z,22.92
2018-02-19T07:34:12.337Z,23.02
2018-02-19T07:35:12.586Z,23.00
2018-02-19T07:36:12.816Z,22.91
2018-02-19T07:37:13.051Z,22.91
2018-02-19T07:38:13.287Z,23.20
2018-02-19T07:39:13.524Z,22.92
2018-02-19T07:40:13.762Z,23.02
2018-02-19T07:41:14.001Z,23.00
2018-02-19T07:42:14.235Z,23.00
2018-02-19T07:43:14.472Z,23.00
2018-02-19T07:44:21.861Z,22.91
2018-02-19T07:45:14.964Z,22.91
2018-02-19T07:46:22.818Z,22.91
2018-02-19T07:47:22.617Z,22.92
2018-02-19T07:48:23.367Z,22.91
2018-02-19T07:49:24.167Z,22.91
2018-02-19T07:50:16.378Z,23.00
2018-02-19T07:51:23.736Z,22.91
2018-02-19T07:52:16.863Z,22.91
2018-02-19T07:53:17.104Z,23.30
2018-02-19T07:54:17.526Z,23.00
2018-02-19T07:55:17.919Z,22.91
2018-02-19T07:56:17.811Z,22.91
2018-02-19T07:57:18.403Z,23.00
2018-02-19T07:58:18.649Z,23.00
2018-02-19T07:59:18.892Z,23.00
2018-02-19T08:00:18.977Z,23.10
2018-02-19T08:01:18.998Z,22.91
2018-02-19T08:02:19.632Z,22.91
2018-02-19T08:03:19.712Z,23.11
2018-02-19T08:04:19.725Z,23.02
2018-02-19T08:05:19.960Z,22.91
2018-02-19T08:06:20.196Z,23.00
2018-02-19T08:07:20.433Z,23.00
2018-02-19T08:08:20.675Z,23.10
2018-02-19T08:09:20.907Z,23.00
2018-02-19T08:10:21.143Z,22.91
2018-02-19T08:11:21.383Z,23.02
2018-02-19T08:12:21.614Z,23.02
2018-02-19T08:13:21.998Z,23.11
2018-02-19T08:14:22.087Z,23.00
2018-02-19T08:15:22.332Z,23.02
2018-02-19T08:16:22.560Z,23.02
2018-02-19T08:17:22.803Z,23.00
2018-02-19T08:18:23.042Z,22.91
2018-02-19T08:19:23.280Z,23.11
2018-02-19T08:20:23.508Z,23.00
2018-02-19T08:21:23.747Z,22.92
2018-02-19T08:22:23.985Z,23.02
2018-02-19T08:23:24.228Z,23.02
2018-02-19T08:24:24.461Z,22.81
2018-02-19T08:25:24.699Z,22.92
2018-02-19T08:26:24.932Z,23.02
2018-02-19T08:27:25.170Z,23.02
2018-02-19T08:28:25.406Z,23.02
2018-02-19T08:29:25.645Z,23.02
2018-02-19T08:30:25.882Z,23.02
2018-02-19T08:31:26.120Z,23.11
2018-02-19T08:32:26.357Z,22.92
2018-02-19T08:33:26.594Z,23.11
2018-02-19T08:34:26.832Z,23.02
2018-02-19T08:35:27.075Z,23.11
2018-02-19T08:36:27.304Z,23.02
2018-02-19T08:37:27.542Z,23.02
2018-02-19T08:39:59.831Z,23.21
2018-02-19T08:41:00.070Z,23.11
2018-02-19T08:42:00.308Z,22.92
2018-02-19T08:43:00.545Z,23.02
2018-02-19T08:44:00.792Z,22.83
2018-02-19T08:45:01.024Z,23.02
2018-02-19T08:46:01.264Z,22.73
2018-02-19T08:47:01.497Z,23.02
2018-02-19T08:48:01.736Z,22.92
2018-02-19T08:49:01.974Z,22.53
2018-02-19T08:50:02.209Z,22.92
2018-02-19T08:51:02.445Z,23.02
2018-02-19T08:52:02.684Z,23.02
2018-02-19T08:53:02.921Z,22.73
2018-02-19T08:54:03.158Z,22.63
2018-02-19T08:55:03.396Z,22.63
2018-02-19T08:56:03.633Z,22.83
2018-02-19T08:57:03.871Z,22.63
2018-02-19T08:58:04.106Z,22.63
2018-02-19T08:59:04.344Z,22.73
2018-02-19T09:00:04.586Z,22.63
2018-02-19T09:01:04.841Z,22.83
2018-02-19T09:02:05.059Z,22.73
2018-02-19T09:03:05.602Z,22.73
2018-02-19T09:04:05.992Z,22.83
2018-02-19T09:05:05.776Z,22.83
2018-02-19T09:06:06.005Z,22.64
2018-02-19T09:07:06.241Z,22.63
2018-02-19T09:08:06.480Z,22.63
2018-02-19T09:09:06.718Z,22.53
2018-02-19T09:10:06.953Z,22.63
2018-02-19T09:11:07.190Z,22.83
2018-02-19T09:12:07.429Z,22.84
2018-02-19T09:13:07.675Z,22.84
2018-02-19T09:14:07.907Z,22.84
2018-02-19T09:15:08.144Z,22.84
2018-02-19T09:16:08.382Z,22.84
2018-02-19T09:17:08.624Z,22.84
2018-02-19T09:18:08.852Z,22.84
2018-02-19T09:19:09.095Z,23.03
2018-02-19T09:20:09.329Z,22.93
2018-02-19T09:21:09.573Z,22.93
2018-02-19T09:22:09.793Z,23.02
2018-02-19T09:23:10.038Z,22.93
2018-02-19T09:24:10.275Z,23.03
2018-02-19T09:25:10.512Z,22.93
2018-02-19T09:26:10.750Z,23.03
2018-02-19T09:27:10.992Z,23.03
2018-02-19T09:28:11.225Z,22.84
2018-02-19T09:29:11.462Z,22.93
2018-02-19T09:30:11.699Z,22.84
2018-02-19T09:31:11.939Z,22.74
2018-02-19T09:32:12.173Z,22.93
2018-02-19T09:33:12.410Z,22.74
2018-02-19T09:34:12.647Z,22.84
2018-02-19T09:35:12.884Z,22.84
2018-02-19T09:36:13.176Z,22.74
2018-02-19T09:37:13.368Z,23.02
2018-02-19T09:38:13.652Z,22.93
2018-02-19T09:39:13.837Z,22.84
2018-02-19T09:40:14.074Z,23.03
2018-02-19T09:41:14.317Z,23.03
2018-02-19T09:42:14.546Z,22.84
2018-02-19T09:43:14.781Z,22.93
2018-02-19T09:44:15.022Z,22.93
2018-02-19T09:45:15.258Z,22.93
2018-02-19T09:46:15.494Z,22.93
2018-02-19T09:47:15.731Z,22.93
2018-02-19T09:48:15.970Z,22.93
2018-02-19T09:49:16.205Z,22.93
2018-02-19T09:50:16.444Z,22.93
2018-02-19T09:51:16.681Z,22.93
2018-02-19T09:52:16.923Z,23.03
2018-02-19T09:53:17.164Z,22.74
2018-02-19T09:54:17.412Z,22.84
2018-02-19T09:55:17.627Z,22.93
2018-02-19T09:56:17.868Z,22.93
2018-02-19T09:57:18.102Z,22.93
2018-02-19T09:58:18.338Z,22.93
2018-02-19T09:59:18.576Z,22.93
2018-02-19T10:00:18.836Z,22.84
2018-02-19T10:01:19.067Z,22.84
2018-02-19T10:02:19.305Z,22.74
2018-02-19T10:03:19.542Z,22.74
2018-02-19T10:04:19.779Z,23.03
2018-02-19T10:05:20.016Z,22.93
2018-02-19T10:06:20.260Z,22.74
2018-02-19T10:07:20.491Z,23.03
2018-02-19T10:08:20.728Z,22.93
2018-02-19T10:09:20.964Z,22.74
2018-02-19T10:10:21.201Z,22.74
2018-02-19T10:11:21.440Z,22.74
2018-02-19T10:12:21.677Z,22.84
2018-02-19T10:13:21.915Z,22.93
2018-02-19T10:14:22.144Z,22.74
2018-02-19T10:15:22.381Z,22.84
2018-02-19T10:16:22.621Z,23.03
2018-02-19T10:17:22.859Z,22.74
2018-02-19T10:18:23.091Z,22.84
2018-02-19T10:19:23.325Z,22.73
2018-02-19T10:20:23.563Z,23.03
2018-02-19T10:21:23.799Z,23.50
2018-02-19T10:22:24.037Z,23.51
2018-02-19T10:23:24.262Z,23.21
2018-02-19T10:24:24.503Z,22.93
2018-02-19T10:25:24.731Z,23.13
2018-02-19T10:26:24.968Z,23.13
2018-02-19T10:27:25.209Z,22.93
2018-02-19T10:28:25.441Z,23.03
2018-02-19T10:29:25.679Z,22.93
2018-02-19T10:30:25.923Z,23.03
2018-02-19T10:31:26.149Z,22.93
2018-02-19T10:32:26.386Z,23.03
2018-02-19T10:33:26.626Z,23.03
2018-02-19T10:34:34.828Z,23.13
2018-02-19T10:35:27.268Z,22.93
2018-02-19T10:36:34.632Z,23.13
2018-02-19T10:37:34.887Z,23.03
2018-02-19T10:38:35.138Z,23.03
2018-02-19T10:39:28.261Z,23.51
2018-02-19T10:40:28.499Z,23.41
2018-02-19T10:41:28.737Z,23.13
2018-02-19T10:42:28.969Z,23.03
2018-02-19T10:43:29.208Z,23.13
2018-02-19T10:44:29.446Z,23.13
2018-02-19T10:45:29.681Z,23.22
2018-02-19T10:46:29.919Z,23.22
2018-02-19T10:47:30.152Z,23.22
2018-02-19T10:48:30.426Z,23.61
2018-02-19T10:49:30.626Z,23.80
2018-02-19T10:50:30.867Z,23.99
2018-02-19T10:51:31.108Z,23.80
2018-02-19T10:52:31.702Z,23.80
2018-02-19T10:53:31.572Z,23.61
2018-02-19T10:54:32.192Z,23.51
2018-02-19T10:55:32.209Z,23.41
2018-02-19T10:56:32.282Z,23.41
2018-02-19T10:57:32.519Z,23.90
2018-02-19T10:58:32.757Z,23.61
2018-02-19T10:59:32.992Z,23.79
2018-02-19T11:00:33.231Z,23.88
2018-02-19T11:01:33.470Z,23.79
2018-02-19T11:02:33.712Z,23.99
2018-02-19T11:03:33.943Z,23.99
2018-02-19T11:04:34.181Z,23.98
2018-02-19T11:05:34.418Z,23.98
2018-02-19T11:06:34.656Z,24.09
2018-02-19T11:07:34.896Z,23.80
2018-02-19T11:08:35.131Z,24.19
2018-02-19T11:09:35.369Z,24.09
2018-02-19T11:10:35.613Z,24.18
2018-02-19T11:11:35.843Z,24.27
2018-02-19T11:12:36.081Z,24.37
2018-02-19T11:13:36.319Z,24.48
2018-02-19T11:14:36.561Z,24.27
2018-02-19T11:15:36.793Z,24.09
2018-02-19T11:16:37.034Z,24.18
2018-02-19T11:17:37.275Z,24.46
2018-02-19T11:18:37.510Z,24.38
2018-02-19T11:19:37.751Z,24.18
2018-02-19T11:20:37.991Z,24.56
2018-02-19T11:21:38.232Z,24.56
2018-02-19T11:22:38.473Z,24.46
2018-02-19T11:23:38.711Z,24.56
2018-02-19T11:24:38.951Z,24.56
2018-02-19T11:25:39.195Z,24.66
2018-02-19T11:26:39.427Z,24.75
2018-02-19T11:27:39.667Z,24.66
2018-02-19T11:28:39.907Z,24.56
2018-02-19T11:29:40.147Z,24.56
2018-02-19T11:30:40.387Z,24.85
2018-02-19T11:31:40.626Z,24.75
2018-02-19T11:32:40.866Z,24.56
2018-02-19T11:33:41.099Z,24.75
2018-02-19T11:34:41.343Z,24.75
2018-02-19T11:35:41.585Z,24.75
2018-02-19T11:36:42.537Z,24.56
2018-02-19T11:37:42.770Z,24.56
2018-02-19T11:38:42.834Z,24.46
2018-02-19T11:39:42.539Z,24.46
2018-02-19T11:40:42.780Z,24.85
2018-02-19T11:41:43.011Z,24.75
2018-02-19T11:42:43.251Z,24.66
2018-02-19T11:43:43.487Z,24.95
2018-02-19T11:44:43.729Z,24.85
2018-02-19T11:45:43.959Z,24.85
2018-02-19T11:46:44.236Z,24.46
2018-02-19T11:47:44.433Z,24.37
2018-02-19T11:48:44.678Z,24.75
2018-02-19T11:49:44.908Z,24.95
2018-02-19T11:50:45.147Z,24.56
2018-02-19T11:51:45.385Z,24.37
2018-02-19T11:52:45.627Z,24.75
2018-02-19T11:53:45.858Z,24.95
2018-02-19T11:54:46.097Z,24.66
2018-02-19T11:55:46.335Z,24.56
2018-02-19T11:56:46.579Z,24.46
2018-02-19T11:57:46.807Z,24.95
2018-02-19T11:58:47.047Z,24.66
2018-02-19T11:59:47.353Z,24.56
2018-02-19T12:00:47.526Z,24.66
2018-02-19T12:01:47.757Z,24.56
2018-02-19T12:02:47.996Z,24.66
2018-02-19T12:03:48.245Z,24.75
2018-02-19T12:04:48.486Z,24.85
2018-02-19T12:05:48.724Z,24.85
2018-02-19T12:06:48.970Z,24.95
2018-02-19T12:07:49.211Z,24.85
2018-02-19T12:08:49.443Z,24.95
2018-02-19T12:09:49.679Z,24.56
2018-02-19T12:10:49.917Z,24.46
2018-02-19T12:11:50.160Z,24.66
2018-02-19T12:12:50.390Z,24.46
2018-02-19T12:13:50.629Z,24.46
2018-02-19T12:14:50.865Z,24.75
2018-02-19T12:15:51.100Z,24.85
2018-02-19T12:16:51.335Z,24.56
2018-02-19T12:17:51.573Z,24.85
2018-02-19T12:18:51.812Z,24.56
2018-02-19T12:19:52.051Z,24.56
2018-02-19T12:20:52.284Z,24.56
2018-02-19T12:21:52.522Z,24.56
2018-02-19T12:22:52.764Z,24.75
2018-02-19T12:23:52.998Z,24.66
2018-02-19T12:24:53.234Z,24.66
2018-02-19T12:25:53.473Z,24.56
2018-02-19T12:26:53.711Z,24.66
2018-02-19T12:27:53.949Z,24.95
2018-02-19T12:28:54.183Z,24.85
2018-02-19T12:29:54.423Z,24.85
2018-02-19T12:30:54.660Z,24.37
2018-02-19T12:31:54.898Z,24.37
2018-02-19T12:32:55.132Z,24.46
2018-02-19T12:33:55.371Z,24.37
2018-02-19T12:34:55.622Z,24.37
2018-02-19T12:35:55.845Z,24.27
2018-02-19T12:36:56.081Z,24.66
2018-02-19T12:37:56.318Z,24.56
2018-02-19T12:38:56.557Z,24.56
2018-02-19T12:39:56.794Z,24.37
2018-02-19T12:40:57.042Z,24.46
2018-02-19T12:41:57.270Z,24.56
2018-02-19T12:42:57.519Z,24.18
2018-02-19T12:43:57.752Z,24.18
2018-02-19T12:44:57.987Z,24.18
2018-02-19T12:45:58.224Z,24.18
2018-02-19T12:46:58.461Z,24.18
2018-02-19T12:47:58.701Z,24.18
2018-02-19T12:48:58.930Z,24.18
2018-02-19T12:49:59.170Z,24.18
2018-02-19T12:50:59.405Z,24.37
2018-02-19T12:51:59.650Z,24.18
2018-02-19T12:52:59.881Z,24.37
2018-02-19T12:54:00.114Z,24.37
2018-02-19T12:55:00.353Z,24.27
2018-02-19T12:56:00.590Z,24.37
2018-02-19T12:57:00.826Z,24.37